Flight Track Log - Related Links

Times and Time Zones

All times are in EDT time to prevent confusion due to time zone crossing. See the SWA2436 flight status page for this flight to view local times or setup timezone preferences in your user account.

Time Position Orientation Groundspeed Altitude Reporting Facility
EDT Latitude Longitude Course Direction KTS MPH feet Rate Location/Type
Thu 04:40:54 PM 42.9667 -71.4500 324° Northwest 171 197 1,900  Level KA90
Thu 04:41:24 PM 42.9903 -71.4664 333° Northwest 201 231 3,100 1,909 Climbing Boston Center
Thu 04:42:22 PM 43.0250 -71.4064 52° Northeast 325 374 4,700 1,916 Climbing Boston Center
Thu 04:43:23 PM 43.0347 -71.3153 82° East 284 327 6,900 2,262 Climbing Boston Center
Thu 04:44:24 PM 43.0500 -71.1956 80° East 299 344 9,300 2,902 Climbing Boston Center
Thu 04:45:25 PM 43.0733 -71.0472 78° East 342 394 12,800 2,847 Climbing Boston Center
Thu 04:46:22 PM 43.0344 -70.9317 115° Southeast 358 412 14,900 2,723 Climbing Boston Center
Thu 04:47:24 PM 42.9342 -70.9086 170° South 308 354 18,200 2,459 Climbing Boston Center
Thu 04:48:24 PM 42.8575 -70.9447 199° South 291 335 19,900 1,900 Climbing Boston Center
Thu 04:49:24 PM 42.7581 -70.9950 200° South 333 383 22,000 2,186 Climbing Boston Center
Thu 04:50:22 PM 42.6567 -71.0456 200° South 365 420 24,200 2,136 Climbing Boston Center
Thu 04:51:22 PM 42.5553 -71.1069 204° Southwest 389 448 26,200 1,750 Climbing Boston Center
Thu 04:52:22 PM 42.4667 -71.1989 217° Southwest 398 458 27,700 1,488 Climbing Boston Center
Thu 04:53:23 PM 42.3758 -71.2961 218° Southwest 416 479 29,200 2,033 Climbing Boston Center
Thu 04:54:23 PM 42.2831 -71.3933 218° Southwest 422 486 31,800 2,182 Climbing Boston Center
Thu 04:55:24 PM 42.1964 -71.4844 218° Southwest 422 486 33,600 1,574 Climbing Boston Center
Thu 04:56:25 PM 42.0928 -71.5839 215° Southwest 417 480 35,000 1,385 Climbing Boston Center
Thu 04:57:34 PM 41.9833 -71.6972 218° Southwest 417 480 36,600 1,302 Climbing Boston Center
Thu 04:58:34 PM 41.8942 -71.7875 217° Southwest 417 480 37,800 694 Climbing Boston Center
Thu 04:59:35 PM 41.8031 -71.8831 218° Southwest 417 480 38,000 99 Climbing Boston Center
Thu 05:00:35 PM 41.7139 -71.9728 217° Southwest 417 480 38,000  Level Boston Center
Thu 05:01:36 PM 41.6244 -72.0653 218° Southwest 417 480 38,000  Level Boston Center
Thu 05:02:36 PM 41.5353 -72.1572 218° Southwest 417 480 38,000  Level Boston Center
Thu 05:03:37 PM 41.4436 -72.2461 216° Southwest 417 480 38,000  Level Boston Center
Thu 05:04:46 PM 41.3375 -72.3544 217° Southwest 411 473 38,000  Level Boston Center
Thu 05:05:47 PM 41.2458 -72.4483 218° Southwest 416 479 38,000  Level Boston Center
Thu 05:06:47 PM 41.1561 -72.5394 217° Southwest 422 486 38,000  Level Boston Center
Thu 05:07:48 PM 41.0644 -72.6300 217° Southwest 417 480 38,000  Level Boston Center
Thu 05:08:46 PM 40.9744 -72.7206 217° Southwest 417 480 38,000  Level Boston Center
Thu 05:09:48 PM 40.8867 -72.8106 218° Southwest 417 480 38,000  Level Boston Center
Thu 05:10:48 PM 40.7947 -72.9033 217° Southwest 417 480 38,000  Level Boston Center
Thu 05:11:48 PM 40.7133 -72.9714 212° Southwest 411 473 38,000  Level Boston Center
Thu 05:12:46 PM 40.6231 -73.0633 218° Southwest 406 467 38,000  Level Boston Center
Thu 05:13:46 PM 40.5350 -73.1556 219° Southwest 406 467 38,000  Level Boston Center
Thu 05:16:14 PM 40.3094 -73.3717 216° Southwest 406 467 38,000  Level Washington Center
Thu 05:17:15 PM 40.2217 -73.4614 218° Southwest 406 467 38,000  Level Washington Center
Thu 05:18:14 PM 40.1192 -73.5542 215° Southwest 406 467 38,000  Level Washington Center
Thu 05:19:14 PM 40.0267 -73.6408 216° Southwest 406 467 38,000  Level Washington Center
Thu 05:20:15 PM 39.9344 -73.7300 217° Southwest 411 473 38,000  Level Washington Center
Thu 05:21:14 PM 39.8442 -73.8186 217° Southwest 411 473 38,000  Level Washington Center
Thu 05:22:14 PM 39.7619 -73.8964 216° Southwest 411 473 38,000  Level Washington Center
Thu 05:23:15 PM 39.6694 -73.9847 216° Southwest 411 473 38,000  Level Washington Center
Thu 05:24:15 PM 39.5747 -74.0731 216° Southwest 416 479 38,000  Level Washington Center
Thu 05:25:14 PM 39.4800 -74.1611 216° Southwest 416 479 38,000  Level Washington Center
Thu 05:26:14 PM 39.3892 -74.2461 216° Southwest 416 479 38,000  Level Washington Center
Thu 05:27:15 PM 39.2964 -74.3339 216° Southwest 423 487 38,000  Level Washington Center
Thu 05:28:15 PM 39.2056 -74.4183 216° Southwest 417 480 38,000  Level Washington Center
Thu 05:29:14 PM 39.1147 -74.5028 216° Southwest 412 474 38,000  Level Washington Center
Thu 05:30:14 PM 39.0194 -74.5925 216° Southwest 417 480 38,000  Level Washington Center
Thu 05:31:15 PM 38.9286 -74.6792 217° Southwest 417 480 38,000  Level Washington Center
Thu 05:32:14 PM 38.8333 -74.7628 214° Southwest 417 480 38,000  Level Washington Center
Thu 05:33:15 PM 38.7419 -74.8492 216° Southwest 417 480 38,000  Level Washington Center
Thu 05:34:15 PM 38.6508 -74.9272 214° Southwest 417 480 38,000  Level Washington Center
Thu 05:35:15 PM 38.5617 -75.0128 217° Southwest 412 474 38,000  Level Washington Center
Thu 05:36:14 PM 38.4703 -75.0958 215° Southwest 412 474 38,000  Level Washington Center
Thu 05:37:15 PM 38.3808 -75.1758 215° Southwest 407 468 38,000  Level Washington Center
Thu 05:38:15 PM 38.2914 -75.2611 217° Southwest 407 468 38,000  Level Washington Center
Thu 05:39:15 PM 38.2000 -75.3433 215° Southwest 407 468 38,000  Level Washington Center
Thu 05:40:15 PM 38.1083 -75.4228 214° Southwest 402 463 38,000  Level Washington Center
Thu 05:41:15 PM 38.0125 -75.4942 210° Southwest 402 463 38,000  Level Washington Center
Thu 05:42:15 PM 37.9083 -75.5575 206° Southwest 407 468 38,000  Level Washington Center
Thu 05:43:15 PM 37.8061 -75.6206 206° Southwest 413 475 38,000  Level Washington Center
Thu 05:44:15 PM 37.6997 -75.6811 204° Southwest 413 475 38,000  Level Washington Center
Thu 05:45:15 PM 37.5975 -75.7439 206° Southwest 413 475 38,000  Level Washington Center
Thu 05:46:15 PM 37.4931 -75.8039 205° Southwest 413 475 38,000  Level Washington Center
Thu 05:47:15 PM 37.3928 -75.8636 205° Southwest 407 468 38,000  Level Washington Center
Thu 05:48:15 PM 37.2906 -75.9233 205° Southwest 407 468 38,000  Level Washington Center
Thu 05:49:15 PM 37.1881 -75.9828 205° Southwest 402 463 38,000  Level Washington Center
Thu 05:50:15 PM 37.0897 -76.0422 206° Southwest 402 463 38,000  Level Washington Center
Thu 05:51:15 PM 36.9853 -76.1042 205° Southwest 402 463 38,000 -350 Level Washington Center
Thu 05:52:15 PM 36.8786 -76.1606 203° Southwest 409 471 37,300 -500 Descending Washington Center
Thu 05:53:15 PM 36.7783 -76.2194 205° Southwest 409 471 37,000 -150 Descending Washington Center
Thu 05:54:15 PM 36.6756 -76.2808 206° Southwest 409 471 37,000  Level Washington Center
Thu 05:55:15 PM 36.5772 -76.3472 208° Southwest 403 464 37,000  Level Washington Center
Thu 05:56:14 PM 36.4953 -76.4369 221° Southwest 403 464 37,000  Level Washington Center
Thu 05:57:15 PM 36.4131 -76.5289 222° Southwest 403 464 37,000  Level Washington Center
Thu 05:58:15 PM 36.3289 -76.6206 221° Southwest 403 464 37,000 400 Level Washington Center
Thu 05:59:15 PM 36.2469 -76.7097 221° Southwest 403 464 37,800 500 Climbing Washington Center
Thu 06:00:15 PM 36.1461 -76.7700 206° Southwest 398 458 38,000 100 Climbing Washington Center
Thu 06:01:15 PM 36.0433 -76.8328 206° Southwest 405 466 38,000  Level Washington Center
Thu 06:02:15 PM 35.9425 -76.8953 207° Southwest 405 466 38,000  Level Washington Center
Thu 06:03:15 PM 35.8417 -76.9578 207° Southwest 410 472 38,000  Level Washington Center
Thu 06:04:15 PM 35.7386 -77.0250 208° Southwest 410 472 38,000  Level Washington Center
Thu 06:05:15 PM 35.6356 -77.0872 206° Southwest 410 472 38,000  Level Washington Center
Thu 06:06:15 PM 35.5325 -77.1514 207° Southwest 415 478 38,000  Level Washington Center
Thu 06:07:15 PM 35.4294 -77.2183 208° Southwest 415 478 38,000  Level Washington Center
Thu 06:08:15 PM 35.3264 -77.2800 206° Southwest 415 478 38,000  Level Washington Center
Thu 06:09:15 PM 35.2253 -77.3414 206° Southwest 415 478 38,000  Level Washington Center
Thu 06:10:15 PM 35.1200 -77.4050 206° Southwest 415 478 38,000  Level Washington Center
Thu 06:11:15 PM 35.0189 -77.4689 207° Southwest 415 478 38,000  Level Washington Center
Thu 06:12:15 PM 34.9178 -77.5297 206° Southwest 410 472 38,000  Level Washington Center
Thu 06:13:15 PM 34.8186 -77.5958 209° Southwest 410 472 38,000  Level Washington Center
Thu 06:14:15 PM 34.7153 -77.6539 205° Southwest 410 472 38,000  Level Washington Center
Thu 06:15:15 PM 34.6161 -77.7194 209° Southwest 410 472 38,000  Level Washington Center
Thu 06:16:15 PM 34.5128 -77.7822 207° Southwest 410 472 38,000  Level Washington Center
Thu 06:17:15 PM 34.4094 -77.8425 206° Southwest 410 472 38,000  Level Washington Center
Thu 06:18:15 PM 34.3019 -77.8922 201° Southwest 410 472 38,000  Level Washington Center
Thu 06:19:15 PM 34.1867 -77.9217 192° South 415 478 38,000  Level Washington Center
Thu 06:21:04 PM 33.9767 -77.9819 193° South 430 495 38,000  Level Jacksonville Center
Thu 06:22:04 PM 33.8592 -78.0186 195° South 430 495 38,000  Level Jacksonville Center
Thu 06:23:04 PM 33.7414 -78.0525 193° South 430 495 38,000  Level Jacksonville Center
Thu 06:24:04 PM 33.6133 -78.0869 193° South 430 495 38,000  Level Jacksonville Center
Thu 06:25:04 PM 33.4958 -78.1208 194° South 430 495 38,000  Level Jacksonville Center
Thu 06:26:04 PM 33.3803 -78.1542 194° South 430 495 38,000  Level Jacksonville Center
Thu 06:27:04 PM 33.2647 -78.1878 194° South 430 495 38,000  Level Jacksonville Center
Thu 06:28:04 PM 33.1467 -78.2189 192° South 430 495 38,000  Level Jacksonville Center
Thu 06:29:04 PM 33.0292 -78.2522 193° South 430 495 38,000  Level Jacksonville Center
Thu 06:30:04 PM 32.9133 -78.2853 193° South 430 495 38,000  Level Jacksonville Center
Thu 06:31:04 PM 32.7956 -78.3186 193° South 430 495 38,000  Level Jacksonville Center
Thu 06:32:04 PM 32.6778 -78.3517 193° South 430 495 38,000  Level Jacksonville Center
Thu 06:33:04 PM 32.5600 -78.3847 193° South 430 495 38,000  Level Jacksonville Center
Thu 06:34:04 PM 32.4444 -78.4150 192° South 430 495 38,000  Level Jacksonville Center
Thu 06:35:04 PM 32.3392 -78.4497 196° South 430 495 38,000  Level Jacksonville Center
Thu 06:36:04 PM 32.2214 -78.4850 194° South 435 501 38,000  Level Jacksonville Center
Thu 06:37:04 PM 32.1056 -78.5175 193° South 435 501 38,000  Level Jacksonville Center
Thu 06:38:04 PM 31.9878 -78.5525 194° South 430 495 38,000  Level Jacksonville Center
Thu 06:39:04 PM 31.8719 -78.5847 193° South 430 495 38,000  Level Jacksonville Center
Thu 06:40:04 PM 31.7583 -78.6194 195° South 430 495 38,000  Level Jacksonville Center
Thu 06:41:04 PM 31.6406 -78.6517 193° South 430 495 38,000  Level Jacksonville Center
Thu 06:42:04 PM 31.5225 -78.6839 193° South 430 495 38,000  Level Jacksonville Center
Thu 06:43:04 PM 31.4089 -78.7206 195° South 430 495 38,000  Level Jacksonville Center
Thu 06:44:04 PM 31.2931 -78.7525 193° South 430 495 38,000  Level Jacksonville Center
Thu 06:45:04 PM 31.1753 -78.7869 194° South 430 495 38,000  Level Jacksonville Center
Thu 06:46:04 PM 31.0594 -78.8186 193° South 430 495 38,000  Level Jacksonville Center
Thu 06:47:04 PM 30.9311 -78.8531 193° South 432 497 38,000  Level Jacksonville Center
Thu 06:48:04 PM 30.8172 -78.8869 194° South 425 489 38,000  Level Jacksonville Center
Thu 06:50:32 PM 30.5419 -78.9600 193° South 421 484 38,000  Level Miami Center
Thu 06:51:32 PM 30.4289 -78.9939 194° South 421 484 38,000  Level Miami Center
Thu 06:52:32 PM 30.3200 -79.0397 200° South 421 484 38,000  Level Miami Center
Thu 06:53:32 PM 30.2086 -79.0878 200° South 426 490 38,000  Level Miami Center
Thu 06:54:32 PM 30.0975 -79.1358 201° Southwest 431 496 38,000 -550 Level Miami Center
Thu 06:55:32 PM 29.9819 -79.1908 202° Southwest 431 496 36,900 -1,000 Descending Miami Center
Thu 06:56:32 PM 29.8706 -79.2436 202° Southwest 426 490 36,000 -450 Descending Miami Center
Thu 06:57:32 PM 29.7642 -79.2508 183° South 441 507 36,000  Level Miami Center
Thu 06:58:32 PM 29.6328 -79.2503 180° South 448 516 36,000  Level Miami Center
Thu 06:59:32 PM 29.5097 -79.2500 180° South 453 521 36,000  Level Miami Center
Thu 07:00:32 PM 29.3925 -79.2808 193° South 453 521 36,000 -950 Level Miami Center
Thu 07:01:32 PM 29.3075 -79.3669 221° Southwest 410 472 34,100 -2,000 Descending Miami Center
Thu 07:02:32 PM 29.2244 -79.4578 224° Southwest 410 472 32,000 -2,050 Descending Miami Center
Thu 07:03:32 PM 29.1375 -79.5389 219° Southwest 410 472 30,000 -1,950 Descending Miami Center
Thu 07:04:32 PM 29.0731 -79.6322 232° Southwest 390 449 28,100 -1,900 Descending Miami Center
Thu 07:05:32 PM 29.0417 -79.7406 252° West 370 426 26,200 -1,900 Descending Miami Center
Thu 07:06:32 PM 29.0103 -79.8442 251° West 365 420 24,300 -1,800 Descending Miami Center
Thu 07:07:32 PM 28.9811 -79.9478 252° West 354 407 22,600 -1,800 Descending Miami Center
Thu 07:08:32 PM 28.9519 -80.0419 251° West 349 402 20,700 -1,879 Descending Miami Center
Thu 07:10:50 PM 28.8833 -80.2833 252° West 319 367 16,400 -1,844 Descending Orlando TRACON
Thu 07:11:44 PM 28.8500 -80.3667 245° Southwest 311 358 14,800 -1,152 Descending Orlando TRACON
Thu 07:12:55 PM 28.8333 -80.4833 261° West 308 354 14,000 -962 Descending Orlando TRACON
Thu 07:13:55 PM 28.8333 -80.5833 270° West 315 362 12,700 -1,350 Descending Orlando TRACON
Thu 07:14:55 PM 28.8333 -80.6833 270° West 302 348 11,300 -1,304 Descending Orlando TRACON
Thu 07:15:50 PM 28.8167 -80.7667 257° West 283 326 10,200 -1,148 Descending Orlando TRACON
Thu 07:16:50 PM 28.8167 -80.8500 270° West 275 316 9,100 -1,300 Descending Orlando TRACON
Thu 07:17:50 PM 28.8167 -80.9333 270° West 274 315 7,600 -1,190 Descending Orlando TRACON
Thu 07:18:56 PM 28.8000 -81.0167 257° West 249 287 6,600 -800 Descending Orlando TRACON
Thu 07:19:50 PM 28.7833 -81.0833 254° West 219 252 6,000 -316 Descending Orlando TRACON
Thu 07:20:50 PM 28.7667 -81.1500 254° West 217 250 6,000 -350 Level Orlando TRACON
Thu 07:21:50 PM 28.7333 -81.2167 240° Southwest 219 252 5,300 -850 Descending Orlando TRACON
Thu 07:22:50 PM 28.7000 -81.2500 221° Southwest 211 243 4,300 -1,000 Descending Orlando TRACON
Thu 07:23:50 PM 28.6500 -81.2833 210° Southwest 202 232 3,300 -722 Descending Orlando TRACON
Thu 07:24:38 PM 28.6000 -81.2833 180° South 201 231 3,000 -375 Descending Orlando TRACON

Login

Don't have an account? Register now (free) for customized features, flight alerts, and more!